Seneca, Michigan
Current Conditions -  °F | °C
As of 7:53 PM on Wednesday 22 Oct 2014 (Local Time) from KADG Reporting Station
Clear Clear  
Wind Chill: 43°   Ceiling: Unl
Heat Index: 46°   Visibility: 10mi
Dew Point: 39°   Wind: 6mph
Humidity: 76%   Direction: 340°NNW
Pressure: 30.29"   Gusts: NA
Location:  41.79°N, 84.18°W
Report Text: KADG 222353Z AUTO 34005KT 10SM CLR 08/04 A3029 RMK AO2 SLP264 T00780039 10122 20078 56002
Loading
Personal Weather Stations






























Interactive Weather Map
Tropical Storm Tracking
New forecast layout! Learn more

10-Day Weather Forecast

Advertisements
Track Severe Weather on mobile